Time;durP1;ratioP1;P1;durP2;ratioP2;P2;SDS_P1;SDS_P2;PMS_P1;PMS_P2;Temp;Humidity;BMP_temperature;BMP_pressure;BME280_temperature;BME280_humidity;BME280_pressure;Samples;Min_cycle;Max_cycle;Signal;HPM_P1;HPM_P2
2021/12/16 00:37:27;;;;;;;89.88;51.70;;;;;;;6.90;90.80;103241.94;10510926;28;20082;-85
2021/12/16 00:47:57;;;;;;;97.45;51.80;;;;;;;6.86;90.66;103245.00;10522343;28;20047;-84
2021/12/16 00:58:22;;;;;;;92.65;53.33;;;;;;;6.96;91.12;103257.25;10525233;28;20029;-85
2021/12/16 01:03:41;;;;;;;99.53;52.15;;;;;;;6.95;90.58;103254.50;10500484;28;20506;-84
2021/12/16 01:35:16;;;;;;;94.03;49.95;;;;;;;6.86;91.34;103267.50;10524361;28;20434;-85
2021/12/16 01:40:41;;;;;;;95.50;54.25;;;;;;;6.89;90.95;103267.78;10521952;28;20113;-84
2021/12/16 01:51:21;;;;;;;89.78;48.05;;;;;;;6.81;90.85;103289.53;10471071;28;20052;-84
2021/12/16 01:56:42;;;;;;;80.30;47.00;;;;;;;6.76;90.90;103281.25;10522478;28;20040;-84
2021/12/16 02:01:42;;;;;;;104.53;54.67;;;;;;;6.83;90.69;103280.19;10528587;28;20472;-84
2021/12/16 02:12:14;;;;;;;90.82;53.90;;;;;;;6.75;91.36;103288.13;10489789;28;20092;-84
2021/12/16 02:38:17;;;;;;;101.00;52.05;;;;;;;6.67;91.61;103296.84;10520160;28;20418;-84
2021/12/16 02:48:29;;;;;;;96.45;51.95;;;;;;;6.65;91.28;103306.19;10536312;28;20079;-84
2021/12/16 02:53:30;;;;;;;98.83;53.93;;;;;;;6.61;91.54;103310.16;10537729;28;20115;-84
2021/12/16 02:58:32;;;;;;;92.18;53.00;;;;;;;6.59;91.43;103298.69;10502315;28;20111;-85
2021/12/16 03:03:35;;;;;;;76.43;37.42;;;;;;;6.61;91.94;103301.41;10502809;28;20036;-84
2021/12/16 03:08:35;;;;;;;103.32;55.10;;;;;;;6.57;91.46;103307.06;10518939;28;20050;-85
2021/12/16 03:19:25;;;;;;;95.03;49.88;;;;;;;6.51;91.70;103296.97;10517079;28;20518;-85
2021/12/16 03:39:34;;;;;;;93.78;50.72;;;;;;;6.32;91.52;103296.72;10476151;28;20044;-85
2021/12/16 03:44:52;;;;;;;111.65;61.85;;;;;;;6.32;92.25;103299.31;10509670;28;20078;-85
2021/12/16 03:49:52;;;;;;;125.80;62.15;;;;;;;6.32;92.34;103308.06;10457977;28;20051;-85
2021/12/16 03:54:53;;;;;;;102.38;58.13;;;;;;;6.27;91.77;103311.88;10459255;28;20461;-85
2021/12/16 03:59:54;;;;;;;121.75;62.28;;;;;;;6.23;91.91;103312.31;10442590;28;20142;-85
2021/12/16 04:04:54;;;;;;;137.20;60.85;;;;;;;6.23;92.69;103314.91;10441879;28;20052;-85
2021/12/16 04:09:55;;;;;;;105.53;57.38;;;;;;;6.26;92.83;103329.91;10457186;28;20020;-85
2021/12/16 04:14:58;;;;;;;129.05;66.55;;;;;;;6.34;92.50;103326.41;10457856;28;20139;-85
2021/12/16 04:19:59;;;;;;;127.22;64.68;;;;;;;6.31;92.62;103327.03;10456943;28;20025;-84
2021/12/16 04:25:02;;;;;;;100.32;56.42;;;;;;;6.23;92.26;103330.50;10456630;28;20436;-84
2021/12/16 04:30:04;;;;;;;113.72;56.72;;;;;;;6.19;91.89;103336.16;10456351;28;20032;-84
2021/12/16 04:35:05;;;;;;;117.22;58.67;;;;;;;6.08;92.74;103329.81;10441816;28;20059;-84
2021/12/16 04:40:08;;;;;;;116.30;59.72;;;;;;;6.06;92.76;103333.03;10457120;28;20111;-84
2021/12/16 04:45:10;;;;;;;126.80;57.78;;;;;;;6.12;92.40;103337.16;10447935;28;20047;-85
2021/12/16 04:50:12;;;;;;;117.78;64.47;;;;;;;5.98;92.51;103330.50;10522159;28;20051;-84
2021/12/16 04:55:13;;;;;;;105.90;59.47;;;;;;;5.93;92.71;103328.16;10505770;28;20032;-85
2021/12/16 05:00:16;;;;;;;113.35;67.32;;;;;;;5.76;93.05;103324.69;10522415;28;20293;-85
2021/12/16 05:05:17;;;;;;;100.82;57.05;;;;;;;5.63;92.57;103318.94;10504927;28;20024;-85
2021/12/16 05:10:18;;;;;;;114.68;57.85;;;;;;;5.45;91.40;103313.59;10539746;28;20455;-84
2021/12/16 05:15:26;;;;;;;108.13;58.07;;;;;;;5.09;92.03;103316.63;10502697;28;20484;-84
2021/12/16 05:20:28;;;;;;;112.95;60.47;;;;;;;5.04;92.37;103325.59;10505476;28;20035;-85
2021/12/16 05:25:48;;;;;;;118.68;66.43;;;;;;;4.81;92.17;103331.78;10517764;28;20020;-84
2021/12/16 05:30:48;;;;;;;126.57;65.55;;;;;;;4.55;92.46;103338.50;10504451;28;20036;-85
2021/12/16 05:35:49;;;;;;;120.45;62.30;;;;;;;4.43;92.34;103337.13;10519261;28;20027;-84
2021/12/16 05:40:50;;;;;;;171.77;65.43;;;;;;;4.31;92.46;103344.44;10518277;28;20036;-84
2021/12/16 05:45:52;;;;;;;125.40;69.45;;;;;;;4.18;92.53;103351.59;10504767;28;20048;-85
2021/12/16 05:51:02;;;;;;;120.88;63.83;;;;;;;4.10;93.16;103361.09;10501879;28;20491;-84
2021/12/16 05:56:03;;;;;;;84.25;46.92;;;;;;;3.88;92.82;103373.25;10517049;28;20043;-89
2021/12/16 06:01:06;;;;;;;82.57;47.27;;;;;;;3.78;92.83;103379.06;10526380;28;20036;-84
2021/12/16 06:06:07;;;;;;;91.45;46.55;;;;;;;3.66;93.18;103378.53;10517493;28;20032;-84
2021/12/16 06:27:26;;;;;;;127.03;68.05;;;;;;;3.35;93.45;103406.97;10493847;28;20488;-91
2021/12/16 06:32:16;;;;;;;132.75;70.70;;;;;;;3.50;93.42;103405.25;10519848;28;20380;-91
2021/12/16 06:37:16;;;;;;;155.60;77.38;;;;;;;3.52;93.69;103410.63;10484873;28;20031;-90
2021/12/16 06:42:17;;;;;;;133.40;67.35;;;;;;;3.45;94.00;103400.28;10518798;28;20088;-88
2021/12/16 06:47:22;;;;;;;140.15;75.90;;;;;;;3.25;93.60;103406.63;10518086;28;20551;-89
2021/12/16 06:52:31;;;;;;;107.93;58.85;;;;;;;3.16;93.57;103409.03;10502717;28;20028;-89
2021/12/16 06:57:44;;;;;;;142.57;71.65;;;;;;;2.98;93.94;103412.97;10516806;28;20050;-88
2021/12/16 07:02:57;;;;;;;157.23;76.13;;;;;;;2.89;93.62;103419.63;10519206;28;20470;-88
2021/12/16 07:07:58;;;;;;;181.82;87.05;;;;;;;2.85;93.73;103422.59;10502396;28;20071;-90
2021/12/16 07:13:05;;;;;;;148.73;75.13;;;;;;;2.75;93.72;103431.81;10516979;28;20032;-89
2021/12/16 07:18:06;;;;;;;147.70;71.38;;;;;;;2.70;93.44;103421.63;10509872;28;20043;-90
2021/12/16 07:23:07;;;;;;;175.15;81.45;;;;;;;2.66;93.73;103437.53;10524652;28;20070;-87
2021/12/16 07:28:08;;;;;;;133.80;70.25;;;;;;;2.66;93.64;103453.97;10525685;28;20031;-88
2021/12/16 07:33:08;;;;;;;164.65;76.55;;;;;;;2.75;94.33;103449.94;10507409;28;20016;-89
2021/12/16 07:38:09;;;;;;;132.82;64.07;;;;;;;2.69;93.84;103464.69;10507532;28;20028;-89
2021/12/16 07:43:19;;;;;;;145.38;68.85;;;;;;;2.73;93.99;103487.63;10508054;28;20396;-89
2021/12/16 07:48:20;;;;;;;158.00;79.10;;;;;;;2.89;93.96;103487.78;10499333;28;20037;-91
2021/12/16 07:53:20;;;;;;;165.60;73.05;;;;;;;2.95;94.31;103500.56;10467634;28;20067;-91
2021/12/16 07:58:23;;;;;;;144.82;72.60;;;;;;;3.03;93.89;103501.47;10499897;28;20476;-92
2021/12/16 08:03:25;;;;;;;100.53;55.13;;;;;;;3.04;94.12;103518.84;10499629;28;20059;-91
2021/12/16 08:08:25;;;;;;;98.78;48.15;;;;;;;2.96;94.08;103506.63;10467811;28;20155;-90
2021/12/16 08:13:26;;;;;;;136.52;65.47;;;;;;;2.90;94.01;103530.13;10499695;28;20086;-89
2021/12/16 08:18:28;;;;;;;99.10;53.80;;;;;;;2.90;94.37;103531.03;10480324;28;20028;-87
2021/12/16 08:23:28;;;;;;;135.73;69.77;;;;;;;2.92;94.37;103534.72;10464954;28;20032;-86
2021/12/16 08:28:29;;;;;;;103.93;51.90;;;;;;;3.11;94.31;103546.41;10480219;28;20857;-86
2021/12/16 08:33:29;;;;;;;132.43;68.47;;;;;;;3.34;94.13;103538.81;10483176;28;20067;-85
2021/12/16 08:38:30;;;;;;;142.35;71.18;;;;;;;3.42;94.01;103545.81;10497232;28;20017;-86
2021/12/16 08:43:30;;;;;;;146.65;70.68;;;;;;;3.44;93.96;103552.09;10480304;28;20040;-84
2021/12/16 08:48:31;;;;;;;143.30;69.05;;;;;;;3.48;94.33;103554.31;10479803;28;20154;-88
2021/12/16 08:53:31;;;;;;;139.82;68.70;;;;;;;3.41;94.49;103568.97;10480213;28;20039;-87
2021/12/16 08:58:32;;;;;;;139.63;73.88;;;;;;;3.57;94.02;103564.88;10479139;28;20029;-88
2021/12/16 09:03:32;;;;;;;168.27;76.15;;;;;;;3.70;93.99;103567.25;10499096;28;20031;-88
2021/12/16 09:08:33;;;;;;;141.70;71.53;;;;;;;3.85;94.23;103574.97;10480310;28;20122;-88
2021/12/16 09:13:34;;;;;;;145.93;64.47;;;;;;;3.99;94.04;103580.13;10496059;28;20106;-88
2021/12/16 09:18:39;;;;;;;140.95;68.03;;;;;;;4.08;94.34;103578.63;10480546;28;20028;-88
2021/12/16 09:23:41;;;;;;;123.35;59.58;;;;;;;4.17;94.22;103578.78;10464110;28;20512;-88
2021/12/16 09:28:42;;;;;;;130.23;65.47;;;;;;;4.52;94.21;103594.94;10486929;28;20039;-90
2021/12/16 09:33:44;;;;;;;120.03;57.92;;;;;;;4.68;94.69;103584.66;10494606;28;20068;-89
2021/12/16 09:38:45;;;;;;;127.10;60.33;;;;;;;4.79;93.76;103595.34;10478693;28;20035;-89
2021/12/16 09:43:51;;;;;;;113.63;60.33;;;;;;;4.76;93.19;103582.97;10454064;28;20037;-90
2021/12/16 09:48:52;;;;;;;89.20;48.85;;;;;;;5.08;93.33;103596.09;10437861;28;20052;-90
2021/12/16 09:53:55;;;;;;;75.53;42.05;;;;;;;5.92;91.81;103594.06;10461203;28;20029;-89
2021/12/16 09:58:56;;;;;;;60.35;38.55;;;;;;;6.16;89.19;103583.78;10461646;28;20035;-91
2021/12/16 10:04:02;;;;;;;51.65;34.72;;;;;;;6.86;86.62;103582.50;10481898;28;20025;-95
2021/12/16 10:09:06;;;;;;;53.47;33.45;;;;;;;7.30;85.80;103586.25;10446895;28;20029;-96
2021/12/16 10:19:13;;;;;;;59.33;35.42;;;;;;;8.41;84.18;103581.78;10496719;28;20055;-87
2021/12/16 10:24:21;;;;;;;42.80;30.00;;;;;;;9.69;79.93;103586.34;10478639;28;20040;-88
2021/12/16 10:29:33;;;;;;;51.15;29.80;;;;;;;10.82;75.75;103579.22;10492274;28;20060;-86
2021/12/16 10:34:33;;;;;;;60.97;37.67;;;;;;;11.38;73.67;103571.91;10477197;28;20036;-89
2021/12/16 10:39:34;;;;;;;49.92;31.83;;;;;;;10.92;74.52;103567.84;10495507;28;20025;-83
2021/12/16 10:44:35;;;;;;;47.13;29.52;;;;;;;10.98;75.65;103563.16;10494325;28;20074;-85
2021/12/16 10:49:37;;;;;;;42.42;27.55;;;;;;;12.10;72.28;103565.84;10472253;28;20081;-84
2021/12/16 10:54:44;;;;;;;43.70;26.20;;;;;;;13.61;66.50;103547.34;10503047;28;20036;-84
2021/12/16 10:59:57;;;;;;;44.75;27.63;;;;;;;12.75;68.95;103557.13;10483942;28;20024;-84
2021/12/16 11:05:03;;;;;;;38.22;25.88;;;;;;;12.23;70.76;103566.88;10483904;28;20028;-85
2021/12/16 11:10:06;;;;;;;41.78;27.48;;;;;;;12.49;70.15;103569.03;10483583;28;20067;-83
2021/12/16 11:15:09;;;;;;;42.22;29.23;;;;;;;12.40;71.31;103577.09;10501097;28;20491;-84
2021/12/16 11:20:47;;;;;;;45.97;29.42;;;;;;;13.04;69.26;103576.97;10499310;28;20032;-83
2021/12/16 11:25:56;;;;;;;46.85;29.67;;;;;;;12.45;71.33;103591.53;10492982;28;20067;-84
2021/12/16 11:31:12;;;;;;;41.17;28.92;;;;;;;12.07;73.08;103586.59;10500850;28;20028;-84
2021/12/16 11:36:16;;;;;;;43.53;25.95;;;;;;;12.02;72.71;103588.81;10500551;28;20032;-84
2021/12/16 11:41:35;;;;;;;40.25;26.92;;;;;;;11.77;73.07;103585.75;10498981;28;20021;-83
2021/12/16 11:46:46;;;;;;;45.53;26.95;;;;;;;11.67;74.63;103578.78;10496994;28;20484;-83
2021/12/16 11:52:03;;;;;;;39.28;26.90;;;;;;;11.30;75.75;103586.06;10535365;28;20032;-84
2021/12/16 11:57:37;;;;;;;37.65;26.83;;;;;;;11.29;75.37;103582.53;10509376;28;20028;-86
2021/12/16 12:02:43;;;;;;;38.30;26.45;;;;;;;11.48;75.24;103576.28;10471072;28;20055;-83
2021/12/16 12:07:45;;;;;;;49.40;28.08;;;;;;;11.52;74.30;103575.75;10525313;28;20055;-83
2021/12/16 12:12:47;;;;;;;46.75;27.55;;;;;;;11.57;74.86;103571.84;10505153;28;20031;-82
2021/12/16 12:17:51;;;;;;;37.42;25.38;;;;;;;11.81;73.12;103564.25;10541791;28;20028;-83
2021/12/16 12:22:52;;;;;;;47.45;28.67;;;;;;;12.70;70.66;103575.16;10507861;28;20035;-83
2021/12/16 12:27:52;;;;;;;42.78;28.52;;;;;;;13.19;68.44;103565.06;10541308;28;20455;-83
2021/12/16 12:32:53;;;;;;;36.35;25.02;;;;;;;12.74;69.00;103565.81;10523512;28;20173;-83
2021/12/16 12:37:55;;;;;;;34.70;23.73;;;;;;;12.57;69.98;103556.56;10522887;28;20150;-83
2021/12/16 12:42:56;;;;;;;43.58;26.75;;;;;;;11.56;73.02;103559.50;10522339;28;20036;-83
2021/12/16 12:47:58;;;;;;;36.13;23.25;;;;;;;11.96;72.12;103556.75;10505414;28;20145;-83
2021/12/16 12:53:08;;;;;;;36.38;20.15;;;;;;;12.51;69.48;103563.94;10524076;28;20492;-83
2021/12/16 12:58:14;;;;;;;28.88;20.42;;;;;;;13.60;66.28;103566.56;10488527;28;20951;-83
2021/12/16 13:03:22;;;;;;;27.67;18.10;;;;;;;14.04;64.46;103556.72;10505488;28;20028;-83
2021/12/16 13:08:31;;;;;;;31.45;18.48;;;;;;;14.12;62.77;103554.66;10522309;28;20028;-83
2021/12/16 13:13:42;;;;;;;29.92;18.83;;;;;;;12.57;67.88;103564.44;10503939;28;20039;-83
2021/12/16 13:34:37;;;;;;;29.00;17.45;;;;;;;12.86;66.86;103568.53;10532124;27;20393;-84
2021/12/16 13:39:43;;;;;;;25.23;18.08;;;;;;;13.13;66.48;103561.94;10531527;28;20567;-84
2021/12/16 13:44:52;;;;;;;25.98;17.40;;;;;;;13.40;64.69;103551.78;10546944;28;20088;-84
2021/12/16 14:06:37;;;;;;;24.85;16.83;;;;;;;11.51;70.43;103571.31;10515661;28;20024;-84
2021/12/16 14:17:27;;;;;;;33.80;18.05;;;;;;;9.54;76.43;103583.22;10514511;28;20081;-83
2021/12/16 14:43:51;;;;;;;27.80;19.42;;;;;;;8.79;81.00;103590.81;10509664;28;20035;-84
2021/12/16 14:48:51;;;;;;;31.65;16.92;;;;;;;8.63;81.24;103609.28;10501606;28;20123;-87
2021/12/16 14:53:53;;;;;;;27.92;18.42;;;;;;;8.42;82.19;103605.41;10501177;28;20028;-87
2021/12/16 14:59:06;;;;;;;39.00;22.92;;;;;;;8.24;83.50;103601.88;10482809;28;20033;-87
2021/12/16 15:04:07;;;;;;;;;;;;;;;8.06;83.87;103603.53;10468025;28;20024;-87
2021/12/16 15:09:33;;;;;;;41.45;21.80;;;;;;;7.86;84.48;103609.31;10482310;28;20007;-93
2021/12/16 15:45:45;;;;;;;71.88;42.13;;;;;;;7.26;87.53;103630.97;10496654;28;20064;-89
2021/12/16 15:51:02;;;;;;;67.05;45.65;;;;;;;7.19;87.53;103626.81;10495581;28;20044;-88
2021/12/16 15:56:06;;;;;;;68.15;42.67;;;;;;;7.13;87.81;103640.88;10513230;28;20021;-88
2021/12/16 16:01:50;;;;;;;59.00;39.22;;;;;;;7.04;87.94;103636.53;10473258;28;20032;-89
2021/12/16 16:07:00;;;;;;;92.10;56.75;;;;;;;7.11;88.25;103635.50;10499027;28;20053;-88
2021/12/16 16:12:01;;;;;;;84.05;52.95;;;;;;;6.98;88.86;103643.69;10496896;28;20535;-87
2021/12/16 16:17:12;;;;;;;84.28;55.60;;;;;;;6.88;89.41;103640.84;10497455;28;20032;-89
2021/12/16 16:22:19;;;;;;;89.03;52.63;;;;;;;6.80;89.45;103645.25;10494836;28;20044;-92
2021/12/16 16:27:28;;;;;;;86.65;50.67;;;;;;;6.80;89.52;103660.88;10497133;28;20031;-88
2021/12/16 16:32:49;;;;;;;91.10;57.13;;;;;;;7.00;90.12;103662.09;10486704;28;20044;-94
2021/12/16 16:37:50;;;;;;;84.60;51.22;;;;;;;6.92;89.47;103671.66;10469174;28;20044;-86
2021/12/16 16:42:52;;;;;;;99.82;57.15;;;;;;;6.92;90.03;103660.34;10488070;28;20056;-92
2021/12/16 16:48:04;;;;;;;112.93;65.07;;;;;;;6.87;90.29;103673.78;10507483;28;20028;-91
2021/12/16 16:53:05;;;;;;;95.57;55.77;;;;;;;6.84;90.51;103677.72;10483484;28;20082;-91
2021/12/16 16:58:06;;;;;;;94.82;59.00;;;;;;;6.85;89.86;103674.38;10534174;28;20118;-93
2021/12/16 17:03:19;;;;;;;88.97;55.03;;;;;;;6.86;90.79;103669.34;10482402;28;20027;-92
2021/12/16 17:08:22;;;;;;;88.40;55.30;;;;;;;6.84;90.51;103669.91;10461587;28;20033;-92
2021/12/16 17:13:47;;;;;;;100.50;59.80;;;;;;;6.80;90.94;103665.13;10478442;28;20077;-90
2021/12/16 17:18:49;;;;;;;100.22;60.30;;;;;;;6.76;90.91;103666.50;10506379;28;20024;-88
2021/12/16 17:24:01;;;;;;;96.30;62.60;;;;;;;6.72;90.76;103670.44;10479048;28;20024;-87
2021/12/16 17:29:10;;;;;;;102.85;61.92;;;;;;;6.73;91.08;103681.78;10481313;28;20464;-90
2021/12/16 17:34:28;;;;;;;101.80;56.85;;;;;;;6.73;91.07;103687.91;10535829;28;20059;-89
2021/12/16 17:39:50;;;;;;;111.05;63.08;;;;;;;6.73;91.58;103692.19;10507997;28;20032;-89
2021/12/16 17:44:56;;;;;;;95.27;60.63;;;;;;;6.75;91.16;103689.00;10494172;28;20403;-89
2021/12/16 17:49:58;;;;;;;113.57;62.55;;;;;;;6.74;90.81;103684.53;10494571;28;20173;-91
2021/12/16 17:55:04;;;;;;;96.70;60.80;;;;;;;6.72;91.24;103699.06;10493219;28;20127;-91
2021/12/16 18:00:11;;;;;;;93.45;57.13;;;;;;;6.69;91.14;103690.03;10493078;28;20032;-91
2021/12/16 18:05:12;;;;;;;97.55;59.40;;;;;;;6.67;90.83;103695.03;10478570;28;20040;-91
2021/12/16 18:10:15;;;;;;;111.30;64.72;;;;;;;6.63;91.70;103695.47;10493636;28;20422;-91
2021/12/16 18:15:21;;;;;;;101.35;64.47;;;;;;;6.76;91.69;103701.25;10476550;28;20038;-91
2021/12/16 18:20:30;;;;;;;105.40;58.50;;;;;;;6.72;91.29;103716.38;10498970;28;20388;-91
2021/12/16 18:25:44;;;;;;;106.72;65.20;;;;;;;6.68;91.50;103712.50;10500275;28;20485;-88
2021/12/16 18:30:48;;;;;;;103.07;64.05;;;;;;;6.67;91.18;103717.56;10499951;28;20032;-88
2021/12/16 18:35:52;;;;;;;111.25;60.63;;;;;;;6.66;91.48;103708.81;10451785;28;20024;-87
2021/12/16 18:40:53;;;;;;;101.50;60.58;;;;;;;6.66;91.92;103719.22;10483983;28;20028;-85
2021/12/16 18:45:56;;;;;;;104.13;59.72;;;;;;;6.68;91.16;103717.72;10500192;28;20062;-85
2021/12/16 18:51:16;;;;;;;104.68;60.80;;;;;;;6.67;91.72;103715.88;10499864;28;20476;-87
2021/12/16 18:56:17;;;;;;;101.90;58.60;;;;;;;6.66;91.28;103723.53;10486521;28;20033;-89
2021/12/16 19:01:20;;;;;;;110.00;61.95;;;;;;;6.63;91.74;103725.78;10465324;28;20024;-88
2021/12/16 19:06:26;;;;;;;110.65;62.30;;;;;;;6.63;91.36;103724.09;10499486;28;20040;-89
2021/12/16 19:11:28;;;;;;;111.82;69.72;;;;;;;6.66;91.68;103733.94;10482605;28;20028;-89
2021/12/16 19:16:29;;;;;;;104.63;62.83;;;;;;;6.70;91.97;103725.72;10498855;28;20182;-89
2021/12/16 19:21:30;;;;;;;129.32;71.80;;;;;;;6.67;91.80;103735.78;10499906;28;20074;-85
2021/12/16 19:26:31;;;;;;;110.63;69.23;;;;;;;6.65;91.77;103724.28;10499644;28;20037;-88
2021/12/16 19:31:32;;;;;;;119.03;69.95;;;;;;;6.65;91.76;103732.09;10496703;28;20037;-89
2021/12/16 19:36:32;;;;;;;120.00;69.03;;;;;;;6.65;91.79;103729.47;10498158;28;20029;-91
2021/12/16 19:41:33;;;;;;;118.78;65.38;;;;;;;6.68;92.46;103729.81;10482791;28;20055;-91
2021/12/16 19:46:35;;;;;;;99.95;58.50;;;;;;;6.68;91.87;103735.03;10480682;28;20025;-91
2021/12/16 19:51:36;;;;;;;110.88;65.15;;;;;;;6.71;92.20;103741.47;10499564;28;20028;-90
2021/12/16 19:56:37;;;;;;;116.53;64.05;;;;;;;6.70;92.65;103750.03;10464881;28;20033;-91
2021/12/16 20:01:39;;;;;;;127.50;70.83;;;;;;;6.68;92.45;103741.13;10462156;28;20396;-93
2021/12/16 20:06:40;;;;;;;109.45;61.53;;;;;;;6.71;91.78;103750.97;10463418;28;20133;-91
2021/12/16 20:11:44;;;;;;;98.65;54.42;;;;;;;6.81;91.99;103750.28;10495745;28;20051;-91
2021/12/16 20:16:49;;;;;;;100.03;58.60;;;;;;;6.78;91.54;103748.28;10496327;28;20111;-91
2021/12/16 20:21:52;;;;;;;99.93;59.05;;;;;;;6.72;91.68;103758.03;10462691;28;20031;-91
2021/12/16 20:27:01;;;;;;;91.68;57.80;;;;;;;6.78;91.79;103758.72;10495107;28;20068;-91
2021/12/16 20:32:17;;;;;;;96.00;54.83;;;;;;;6.66;91.05;103760.88;10478076;28;20055;-89
2021/12/16 20:37:18;;;;;;;102.25;62.22;;;;;;;6.67;91.47;103772.22;10455055;28;20543;-90
2021/12/16 20:42:24;;;;;;;97.07;58.17;;;;;;;6.66;91.30;103773.88;10493477;28;20491;-92
2021/12/16 20:47:24;;;;;;;113.78;62.38;;;;;;;6.69;91.50;103775.91;10478940;28;20067;-91
2021/12/16 20:52:31;;;;;;;106.13;62.15;;;;;;;6.74;91.42;103777.34;10479988;28;20182;-92
2021/12/16 20:57:32;;;;;;;118.82;70.25;;;;;;;6.80;91.94;103777.09;10494429;28;20040;-92
2021/12/16 21:02:34;;;;;;;106.97;66.22;;;;;;;6.74;92.02;103780.84;10478834;28;20025;-91
2021/12/16 21:07:35;;;;;;;105.70;62.33;;;;;;;6.89;91.78;103785.91;10462203;28;20036;-92
2021/12/16 21:12:36;;;;;;;88.97;57.30;;;;;;;6.81;91.30;103781.53;10453067;28;20036;-91
2021/12/16 21:17:36;;;;;;;112.88;61.30;;;;;;;6.71;91.85;103787.41;10443031;28;20468;-91
2021/12/16 21:22:37;;;;;;;90.20;58.10;;;;;;;6.69;91.55;103787.22;10493622;28;20464;-92
2021/12/16 21:27:38;;;;;;;92.82;57.10;;;;;;;6.71;92.01;103780.53;10478444;28;20029;-91
2021/12/16 21:32:39;;;;;;;116.38;68.13;;;;;;;6.73;92.11;103780.72;10437095;28;20447;-91
2021/12/16 21:37:39;;;;;;;112.95;61.63;;;;;;;6.66;91.91;103781.69;10437415;28;20029;-91
2021/12/16 21:42:42;;;;;;;110.53;61.83;;;;;;;6.60;91.68;103788.81;10462235;28;20855;-91
2021/12/16 21:47:43;;;;;;;98.55;54.05;;;;;;;6.63;92.05;103783.03;10494249;28;20541;-91
2021/12/16 21:52:43;;;;;;;106.38;62.50;;;;;;;6.76;91.67;103787.16;10495423;28;20036;-91
2021/12/16 21:57:44;;;;;;;96.32;57.90;;;;;;;6.65;91.82;103777.25;10486380;28;20048;-91
2021/12/16 22:02:45;;;;;;;107.40;65.63;;;;;;;6.59;91.99;103774.91;10452342;28;20396;-93
2021/12/16 22:07:45;;;;;;;96.53;61.22;;;;;;;6.59;92.28;103773.97;10502079;28;20031;-89
2021/12/16 22:12:46;;;;;;;105.47;58.78;;;;;;;6.71;92.43;103772.72;10484456;28;20025;-91
2021/12/16 22:17:47;;;;;;;105.28;54.72;;;;;;;6.78;91.71;103776.00;10484462;28;20028;-92
2021/12/16 22:22:48;;;;;;;106.67;61.87;;;;;;;6.79;92.08;103783.03;10501269;28;20032;-93
2021/12/16 22:27:48;;;;;;;99.93;60.97;;;;;;;6.73;91.82;103781.63;10483912;28;20024;-91
2021/12/16 22:32:49;;;;;;;103.82;61.92;;;;;;;6.72;91.91;103784.97;10499956;28;20090;-92
2021/12/16 22:37:49;;;;;;;114.95;62.78;;;;;;;6.75;92.06;103780.09;10501501;28;20506;-91
2021/12/16 22:42:50;;;;;;;113.18;61.88;;;;;;;6.82;91.55;103781.72;10500124;28;20089;-91
2021/12/16 22:47:51;;;;;;;97.53;54.20;;;;;;;7.00;91.15;103785.41;10466461;28;20020;-91
2021/12/16 22:52:52;;;;;;;101.17;60.00;;;;;;;6.84;91.55;103789.69;10499437;28;20029;-91
2021/12/16 22:57:53;;;;;;;97.38;59.53;;;;;;;6.71;91.71;103796.13;10484674;28;20021;-92
2021/12/16 23:02:53;;;;;;;116.10;58.72;;;;;;;6.67;91.28;103793.94;10499945;28;20056;-92
2021/12/16 23:07:54;;;;;;;93.13;53.55;;;;;;;6.73;90.95;103789.41;10481885;28;20106;-91
2021/12/16 23:12:55;;;;;;;83.97;50.65;;;;;;;6.85;90.93;103796.72;10484283;28;20036;-91
2021/12/16 23:23:15;;;;;;;88.88;53.13;;;;;;;6.93;90.49;103788.09;10498504;28;20483;-91
2021/12/16 23:28:15;;;;;;;90.32;51.95;;;;;;;6.73;90.75;103798.94;10499715;28;20056;-92
2021/12/16 23:33:16;;;;;;;85.00;49.08;;;;;;;6.86;90.68;103791.72;10498364;28;20048;-91
2021/12/16 23:53:47;;;;;;;80.90;48.63;;;;;;;6.50;91.64;103789.50;10498559;28;20098;-91
2021/12/16 23:58:48;;;;;;;82.97;50.85;;;;;;;6.54;91.46;103793.34;10481837;28;20029;-91
